Time;durP1;ratioP1;P1;durP2;ratioP2;P2;SDS_P1;SDS_P2;PMS_P1;PMS_P2;Temp;Humidity;BMP_temperature;BMP_pressure;BME280_temperature;BME280_humidity;BME280_pressure;Samples;Min_cycle;Max_cycle;Signal;HPM_P1;HPM_P2
2021/06/26 00:00:13;;;;;;;12.40;9.85;;;17.10;86.40;;;;;;2056410;28;20374;-87
2021/06/26 00:01:14;;;;;;;12.25;9.45;;;17.10;86.50;;;;;;2058224;28;20039;-86
2021/06/26 00:02:15;;;;;;;12.73;9.95;;;17.10;86.50;;;;;;2067652;28;20393;-86
2021/06/26 00:03:15;;;;;;;12.05;10.00;;;17.10;86.50;;;;;;2083959;28;20037;-86
2021/06/26 00:04:16;;;;;;;13.00;10.25;;;17.10;86.50;;;;;;2080433;28;20034;-86
2021/06/26 00:05:16;;;;;;;12.07;9.65;;;17.10;86.60;;;;;;2059074;28;20397;-85
2021/06/26 00:06:17;;;;;;;12.52;9.77;;;17.10;86.60;;;;;;2069189;28;20400;-86
2021/06/26 00:07:18;;;;;;;12.98;9.98;;;17.10;86.60;;;;;;2082037;28;20140;-86
2021/06/26 00:08:18;;;;;;;11.93;9.27;;;17.00;86.60;;;;;;2064843;28;20034;-86
2021/06/26 00:09:19;;;;;;;14.07;9.63;;;17.00;86.70;;;;;;2064754;28;20142;-86
2021/06/26 00:10:19;;;;;;;13.43;9.57;;;17.00;86.70;;;;;;2057785;28;20026;-86
2021/06/26 00:11:22;;;;;;;12.10;9.82;;;17.00;86.70;;;;;;2073351;28;20037;-86
2021/06/26 00:12:23;;;;;;;12.02;9.65;;;17.00;86.80;;;;;;2077390;28;20500;-86
2021/06/26 00:13:25;;;;;;;11.65;9.23;;;17.00;86.80;;;;;;2068976;28;20034;-86
2021/06/26 00:14:26;;;;;;;11.15;9.38;;;17.00;86.90;;;;;;2064738;28;20030;-86
2021/06/26 00:15:26;;;;;;;11.68;8.70;;;17.00;86.90;;;;;;2057535;28;20093;-86
2021/06/26 00:16:27;;;;;;;12.57;9.70;;;17.00;87.00;;;;;;2064510;28;20117;-86
2021/06/26 00:17:28;;;;;;;11.48;9.10;;;17.00;87.00;;;;;;2073886;28;20034;-86
2021/06/26 00:18:28;;;;;;;10.43;8.70;;;17.00;87.00;;;;;;2081937;28;20037;-86
2021/06/26 00:19:29;;;;;;;11.73;9.32;;;16.90;87.00;;;;;;2077016;28;20065;-86
2021/06/26 00:20:30;;;;;;;11.70;9.20;;;16.90;87.10;;;;;;2072364;28;20058;-86
2021/06/26 00:21:31;;;;;;;10.70;8.55;;;16.90;87.10;;;;;;2072079;28;20152;-86
2021/06/26 00:22:31;;;;;;;10.27;8.13;;;16.90;87.20;;;;;;2072767;28;20029;-86
2021/06/26 00:23:32;;;;;;;11.73;8.88;;;16.80;87.20;;;;;;2059643;28;20107;-86
2021/06/26 00:24:33;;;;;;;10.63;8.18;;;16.90;87.30;;;;;;2052146;28;20121;-86
2021/06/26 00:25:33;;;;;;;11.27;9.07;;;16.90;87.30;;;;;;2065422;28;20540;-86
2021/06/26 00:26:34;;;;;;;11.15;8.70;;;16.80;87.30;;;;;;2041863;29;20038;-86
2021/06/26 00:27:35;;;;;;;10.40;8.68;;;16.90;87.40;;;;;;2064890;28;20887;-86
2021/06/26 00:28:36;;;;;;;10.50;8.82;;;16.80;87.40;;;;;;2077207;28;20506;-86
2021/06/26 00:29:36;;;;;;;11.23;9.15;;;16.80;87.40;;;;;;2071218;28;20042;-86
2021/06/26 00:30:37;;;;;;;13.18;9.48;;;16.80;88.00;;;;;;2041017;28;20035;-87
2021/06/26 00:31:38;;;;;;;12.02;8.93;;;16.80;87.40;;;;;;2057934;28;20035;-86
2021/06/26 00:32:38;;;;;;;11.75;8.95;;;16.80;87.40;;;;;;2065535;28;20040;-86
2021/06/26 00:33:39;;;;;;;10.52;8.45;;;16.80;87.50;;;;;;2058356;28;20464;-86
2021/06/26 00:34:40;;;;;;;11.63;8.85;;;16.70;87.50;;;;;;2073624;28;20037;-87
2021/06/26 00:35:40;;;;;;;11.45;8.80;;;16.70;87.50;;;;;;2070222;28;20113;-86
2021/06/26 00:36:41;;;;;;;12.43;9.77;;;16.70;87.60;;;;;;2065335;28;20446;-86
2021/06/26 00:37:42;;;;;;;11.48;8.93;;;16.70;87.60;;;;;;2057418;28;20031;-86
2021/06/26 00:38:43;;;;;;;11.13;8.90;;;16.70;87.60;;;;;;2060930;28;20026;-86
2021/06/26 00:39:44;;;;;;;10.60;8.45;;;16.70;87.60;;;;;;2057756;28;20027;-86
2021/06/26 00:40:44;;;;;;;11.35;8.90;;;16.70;87.70;;;;;;2077091;28;20472;-86
2021/06/26 00:41:45;;;;;;;12.43;9.50;;;16.70;87.70;;;;;;2071501;28;20069;-86
2021/06/26 00:42:46;;;;;;;11.30;9.27;;;16.60;88.30;;;;;;2065229;28;20061;-86
2021/06/26 00:43:47;;;;;;;12.75;8.43;;;16.60;87.70;;;;;;2070796;28;20096;-86
2021/06/26 00:44:47;;;;;;;11.68;9.07;;;16.60;87.80;;;;;;2064979;28;20034;-86
2021/06/26 00:45:48;;;;;;;12.18;9.20;;;16.60;87.80;;;;;;2074424;28;20488;-86
2021/06/26 00:46:49;;;;;;;10.90;8.63;;;16.60;87.80;;;;;;2049522;28;20067;-86
2021/06/26 00:47:49;;;;;;;11.75;9.10;;;16.60;87.90;;;;;;2057114;28;20074;-86
2021/06/26 00:48:50;;;;;;;11.60;9.07;;;16.60;87.90;;;;;;2056560;28;20042;-85
2021/06/26 00:49:51;;;;;;;10.70;8.50;;;16.60;87.90;;;;;;2065409;28;20524;-86
2021/06/26 00:50:52;;;;;;;11.48;8.95;;;16.50;87.90;;;;;;2080723;28;20084;-86
2021/06/26 00:51:53;;;;;;;10.82;8.60;;;16.50;87.90;;;;;;2081754;28;20392;-85
2021/06/26 00:52:54;;;;;;;12.00;8.90;;;16.50;87.90;;;;;;2078509;28;20112;-86
2021/06/26 00:53:56;;;;;;;11.85;9.55;;;16.50;88.00;;;;;;2061711;28;20472;-85
2021/06/26 00:54:56;;;;;;;11.82;9.73;;;16.50;88.10;;;;;;2056648;28;20033;-86
2021/06/26 00:55:57;;;;;;;11.75;9.32;;;16.50;88.10;;;;;;2065266;28;20026;-85
2021/06/26 00:56:59;;;;;;;11.13;8.93;;;16.50;88.10;;;;;;2057525;28;20046;-85
2021/06/26 00:58:01;;;;;;;11.55;9.13;;;16.40;88.00;;;;;;2065340;28;20038;-86
2021/06/26 00:59:03;;;;;;;12.00;9.43;;;16.40;88.00;;;;;;2058846;28;20234;-85
2021/06/26 01:00:05;;;;;;;10.82;9.32;;;16.40;88.00;;;;;;2057230;28;20050;-85
2021/06/26 01:01:06;;;;;;;11.05;9.20;;;16.40;88.60;;;;;;2064333;28;20037;-86
2021/06/26 01:02:08;;;;;;;12.00;9.75;;;16.50;88.10;;;;;;2058722;28;20035;-85
2021/06/26 01:03:09;;;;;;;12.48;10.05;;;16.40;88.00;;;;;;2055630;28;20090;-85
2021/06/26 01:04:09;;;;;;;12.18;9.98;;;16.40;88.10;;;;;;2057102;28;20118;-86
2021/06/26 01:05:10;;;;;;;12.13;9.73;;;16.40;88.00;;;;;;2056196;28;20093;-86
2021/06/26 01:06:13;;;;;;;12.77;10.40;;;16.40;88.00;;;;;;2064668;28;20041;-86
2021/06/26 01:07:14;;;;;;;12.73;10.13;;;16.40;88.00;;;;;;2069344;28;20069;-86
2021/06/26 01:08:15;;;;;;;13.23;10.20;;;16.40;88.10;;;;;;2061598;28;20023;-86
2021/06/26 01:09:16;;;;;;;12.63;9.23;;;16.40;88.10;;;;;;2058699;28;20030;-86
2021/06/26 01:10:16;;;;;;;12.77;10.48;;;16.40;88.20;;;;;;2073440;28;20407;-86
2021/06/26 01:11:18;;;;;;;13.18;10.15;;;16.40;88.20;;;;;;2050319;28;20062;-86
2021/06/26 01:12:18;;;;;;;13.73;10.43;;;16.40;88.20;;;;;;2066038;28;20109;-86
2021/06/26 01:13:19;;;;;;;12.70;10.30;;;16.40;88.20;;;;;;2056261;28;20022;-87
2021/06/26 01:14:20;;;;;;;12.85;10.25;;;16.30;88.20;;;;;;2049831;28;20070;-86
2021/06/26 01:15:21;;;;;;;12.80;10.10;;;16.40;88.30;;;;;;2064693;28;20576;-86
2021/06/26 01:16:24;;;;;;;14.05;10.50;;;16.30;88.30;;;;;;2062546;28;20045;-87
2021/06/26 01:17:25;;;;;;;12.30;10.25;;;16.30;88.30;;;;;;2065722;28;20542;-86
2021/06/26 01:18:26;;;;;;;12.20;9.93;;;16.40;88.30;;;;;;2057354;28;20023;-86
2021/06/26 01:19:26;;;;;;;12.73;9.90;;;16.30;88.30;;;;;;2058886;28;20521;-87
2021/06/26 01:20:27;;;;;;;11.30;9.55;;;16.30;88.30;;;;;;2063967;28;20034;-86
2021/06/26 01:21:28;;;;;;;12.98;10.23;;;16.30;88.40;;;;;;2057176;28;20393;-86
2021/06/26 01:22:31;;;;;;;13.45;9.90;;;16.30;88.40;;;;;;2069116;28;20054;-86
2021/06/26 01:23:31;;;;;;;12.32;9.90;;;16.30;88.40;;;;;;2071038;28;20076;-86
2021/06/26 01:24:37;;;;;;;13.05;10.00;;;16.30;88.40;;;;;;2060313;28;20114;-86
2021/06/26 01:25:37;;;;;;;12.88;10.10;;;16.30;88.40;;;;;;2058311;28;20074;-86
2021/06/26 01:26:39;;;;;;;12.32;10.27;;;16.30;88.30;;;;;;2064957;28;20121;-87
2021/06/26 01:27:41;;;;;;;14.02;10.10;;;16.30;89.00;;;;;;2073101;28;20507;-87
2021/06/26 01:28:42;;;;;;;13.48;9.77;;;16.30;88.40;;;;;;2071054;28;20504;-87
2021/06/26 01:29:51;;;;;;;12.90;10.05;;;16.30;88.40;;;;;;2068178;28;20169;-86
2021/06/26 01:30:52;;;;;;;13.27;9.65;;;16.30;88.50;;;;;;2060892;28;20049;-87
2021/06/26 01:31:53;;;;;;;13.60;10.35;;;16.30;88.40;;;;;;2066541;28;20023;-87
2021/06/26 01:32:54;;;;;;;13.70;10.30;;;16.30;88.50;;;;;;2060106;28;20022;-87
2021/06/26 01:33:55;;;;;;;11.52;9.13;;;16.30;88.40;;;;;;2075163;28;20120;-87
2021/06/26 01:34:55;;;;;;;12.27;10.20;;;16.30;88.50;;;;;;2081441;28;20036;-87
2021/06/26 01:35:56;;;;;;;13.00;9.95;;;16.30;88.50;;;;;;2066072;28;20034;-87
2021/06/26 01:36:56;;;;;;;12.30;9.68;;;16.20;88.40;;;;;;2057196;28;20066;-87
2021/06/26 01:37:58;;;;;;;12.25;10.10;;;16.30;88.40;;;;;;2056695;28;20113;-87
2021/06/26 01:38:59;;;;;;;13.13;10.13;;;16.30;88.40;;;;;;2065067;28;20033;-87
2021/06/26 01:40:00;;;;;;;12.93;10.38;;;16.20;88.40;;;;;;2065112;28;20061;-87
2021/06/26 01:41:00;;;;;;;12.88;9.75;;;16.20;88.40;;;;;;2069822;28;20075;-87
2021/06/26 01:42:01;;;;;;;12.95;10.05;;;16.20;88.40;;;;;;2065286;28;20038;-87
2021/06/26 01:43:02;;;;;;;12.73;10.32;;;16.20;88.40;;;;;;2072345;28;20085;-87
2021/06/26 01:44:03;;;;;;;12.70;9.77;;;16.20;88.40;;;;;;2074784;28;20041;-86
2021/06/26 01:45:04;;;;;;;13.20;10.25;;;16.20;88.50;;;;;;2065364;28;20037;-87
2021/06/26 01:46:05;;;;;;;13.25;10.48;;;16.20;88.50;;;;;;2079933;28;20037;-87
2021/06/26 01:47:07;;;;;;;13.85;10.65;;;16.20;88.50;;;;;;2073118;28;20116;-86
2021/06/26 01:48:08;;;;;;;13.23;10.50;;;16.20;88.50;;;;;;2063498;28;20112;-86
2021/06/26 01:49:13;;;;;;;12.20;9.63;;;16.20;88.50;;;;;;2068488;28;20197;-87
2021/06/26 01:50:16;;;;;;;13.15;10.00;;;16.20;88.60;;;;;;2061970;28;20033;-86
2021/06/26 01:51:16;;;;;;;13.68;10.00;;;16.20;88.60;;;;;;2067865;28;20133;-87
2021/06/26 01:52:17;;;;;;;14.32;10.80;;;16.20;88.60;;;;;;2073246;28;20018;-86
2021/06/26 01:53:18;;;;;;;12.60;10.07;;;16.10;88.60;;;;;;2074049;28;20558;-86
2021/06/26 01:54:19;;;;;;;13.68;10.05;;;16.10;88.60;;;;;;2061067;28;20026;-87
2021/06/26 01:55:22;;;;;;;14.23;10.73;;;16.20;88.70;;;;;;2060098;28;20116;-87
2021/06/26 01:56:22;;;;;;;14.75;11.05;;;16.10;88.60;;;;;;2058852;28;20050;-87
2021/06/26 01:57:23;;;;;;;12.75;10.13;;;16.20;88.70;;;;;;2057807;28;20031;-87
2021/06/26 01:58:24;;;;;;;13.20;10.70;;;16.10;88.60;;;;;;2067316;28;20031;-87
2021/06/26 01:59:25;;;;;;;13.20;10.80;;;16.10;88.60;;;;;;2073025;28;20026;-87
2021/06/26 02:00:26;;;;;;;14.15;10.25;;;16.10;88.60;;;;;;2064119;28;20518;-86
2021/06/26 02:01:26;;;;;;;12.75;10.27;;;16.10;88.70;;;;;;2072217;28;20057;-87
2021/06/26 02:02:27;;;;;;;14.63;11.07;;;16.10;88.60;;;;;;2065276;28;20026;-87
2021/06/26 02:03:28;;;;;;;12.73;10.20;;;16.20;88.80;;;;;;2058908;28;20604;-87
2021/06/26 02:04:28;;;;;;;12.88;10.55;;;16.20;88.80;;;;;;2073321;28;20033;-87
2021/06/26 02:05:31;;;;;;;12.13;9.98;;;16.10;88.70;;;;;;2073190;28;20100;-86
2021/06/26 02:06:31;;;;;;;13.95;10.65;;;16.20;88.80;;;;;;2072870;28;20049;-87
2021/06/26 02:07:32;;;;;;;13.30;10.20;;;16.20;89.40;;;;;;2070448;28;20026;-87
2021/06/26 02:08:33;;;;;;;13.57;10.52;;;16.10;88.70;;;;;;2058985;28;20031;-87
2021/06/26 02:09:33;;;;;;;13.75;10.13;;;16.20;88.80;;;;;;2059735;28;20030;-86
2021/06/26 02:10:34;;;;;;;13.05;10.27;;;16.20;88.80;;;;;;2057019;28;20027;-87
2021/06/26 02:11:35;;;;;;;12.77;10.77;;;16.10;88.80;;;;;;2066361;28;20038;-87
2021/06/26 02:12:36;;;;;;;13.07;10.35;;;16.10;88.80;;;;;;2077098;28;20025;-86
2021/06/26 02:13:37;;;;;;;13.18;10.57;;;16.10;88.80;;;;;;2067658;28;20068;-87
2021/06/26 02:14:37;;;;;;;14.52;10.95;;;16.10;88.70;;;;;;2076385;28;20029;-86
2021/06/26 02:15:38;;;;;;;13.73;10.45;;;16.20;88.80;;;;;;2073454;28;20034;-86
2021/06/26 02:16:39;;;;;;;13.50;10.65;;;16.10;88.80;;;;;;2072207;28;20045;-86
2021/06/26 02:17:40;;;;;;;14.05;10.50;;;16.10;88.70;;;;;;2078901;28;20029;-87
2021/06/26 02:18:41;;;;;;;14.82;11.07;;;16.10;88.70;;;;;;2071485;28;20124;-86
2021/06/26 02:19:41;;;;;;;13.40;10.48;;;16.10;88.70;;;;;;2063672;28;20424;-86
2021/06/26 02:20:42;;;;;;;12.23;10.50;;;16.10;88.70;;;;;;2067759;28;20073;-86
2021/06/26 02:21:43;;;;;;;13.43;10.52;;;16.10;88.80;;;;;;2072076;28;20076;-86
2021/06/26 02:22:45;;;;;;;13.50;11.23;;;16.10;88.80;;;;;;2072729;28;20118;-86
2021/06/26 02:23:46;;;;;;;13.52;11.20;;;16.10;88.80;;;;;;2075795;28;22257;-86
2021/06/26 02:24:47;;;;;;;13.98;10.57;;;16.10;88.80;;;;;;2087417;28;20032;-86
2021/06/26 02:25:47;;;;;;;14.32;10.50;;;16.10;88.80;;;;;;2089136;28;20033;-86
2021/06/26 02:26:48;;;;;;;14.50;11.27;;;16.10;88.80;;;;;;2073965;28;20120;-86
2021/06/26 02:27:49;;;;;;;14.10;11.15;;;16.10;88.80;;;;;;2066701;28;20026;-85
2021/06/26 02:28:49;;;;;;;15.45;11.85;;;16.10;89.40;;;;;;2078058;28;20077;-85
2021/06/26 02:29:50;;;;;;;15.02;10.23;;;16.00;88.80;;;;;;2075596;28;20058;-85
2021/06/26 02:30:50;;;;;;;13.40;10.70;;;16.00;88.80;;;;;;2078460;28;20053;-85
2021/06/26 02:31:51;;;;;;;13.98;11.07;;;16.00;88.90;;;;;;2082130;28;20018;-86
2021/06/26 02:32:52;;;;;;;14.95;11.10;;;16.00;88.90;;;;;;2069824;28;20039;-86
2021/06/26 02:33:52;;;;;;;14.55;11.27;;;16.00;88.90;;;;;;2071334;28;20023;-86
2021/06/26 02:34:53;;;;;;;15.02;11.40;;;16.00;88.90;;;;;;2074335;28;20373;-86
2021/06/26 02:35:55;;;;;;;13.68;10.95;;;16.00;88.90;;;;;;2073912;28;20058;-87
2021/06/26 02:36:55;;;;;;;13.50;10.65;;;16.00;88.90;;;;;;2073927;28;20036;-86
2021/06/26 02:37:57;;;;;;;14.95;10.93;;;16.00;89.00;;;;;;2070264;28;20023;-85
2021/06/26 02:38:57;;;;;;;14.90;11.55;;;16.00;89.00;;;;;;2094230;28;20025;-86
2021/06/26 02:39:58;;;;;;;15.65;11.95;;;16.00;89.00;;;;;;2083329;28;20006;-87
2021/06/26 02:40:59;;;;;;;15.63;12.05;;;15.90;88.90;;;;;;2075102;28;20039;-86
2021/06/26 02:42:00;;;;;;;14.23;11.18;;;15.90;88.90;;;;;;2077231;28;20026;-86
2021/06/26 02:43:00;;;;;;;14.73;11.30;;;15.90;89.00;;;;;;2074476;28;20011;-86
2021/06/26 02:44:01;;;;;;;14.73;11.32;;;15.90;89.00;;;;;;2048537;28;20031;-86
2021/06/26 02:45:02;;;;;;;13.20;10.45;;;15.90;89.60;;;;;;2056880;28;20042;-86
2021/06/26 02:46:03;;;;;;;15.00;11.35;;;15.90;89.00;;;;;;2070193;28;20433;-86
2021/06/26 02:47:04;;;;;;;14.73;11.20;;;15.90;89.00;;;;;;2064766;28;20152;-86
2021/06/26 02:48:05;;;;;;;12.68;10.60;;;15.90;89.00;;;;;;2065782;28;20031;-86
2021/06/26 02:49:05;;;;;;;15.77;11.52;;;15.90;89.10;;;;;;2081322;28;20124;-86
2021/06/26 02:50:07;;;;;;;14.50;10.98;;;15.90;89.20;;;;;;2066294;28;20538;-86
2021/06/26 02:51:08;;;;;;;13.43;10.68;;;15.90;89.30;;;;;;2072115;28;20049;-86
2021/06/26 02:52:08;;;;;;;14.23;11.05;;;15.90;89.20;;;;;;2072000;28;20508;-87
2021/06/26 02:53:09;;;;;;;13.63;10.85;;;15.90;89.30;;;;;;2052848;28;20532;-86
2021/06/26 02:54:09;;;;;;;12.90;10.38;;;15.90;89.30;;;;;;2056780;28;20524;-86
2021/06/26 02:55:11;;;;;;;14.82;11.05;;;15.90;89.20;;;;;;2057010;28;20038;-86
2021/06/26 02:56:11;;;;;;;14.25;11.10;;;15.90;89.20;;;;;;2067776;28;20038;-86
2021/06/26 02:57:12;;;;;;;14.48;11.43;;;15.90;89.20;;;;;;2058057;28;20122;-87
2021/06/26 02:58:13;;;;;;;14.10;11.35;;;15.90;89.20;;;;;;2066059;28;20131;-86
2021/06/26 02:59:13;;;;;;;13.40;10.70;;;15.80;89.10;;;;;;2070333;28;20070;-86
2021/06/26 03:00:15;;;;;;;14.10;10.57;;;15.90;89.20;;;;;;2066763;28;20023;-84
2021/06/26 03:01:15;;;;;;;13.75;10.88;;;15.90;89.20;;;;;;2083725;28;20025;-86
2021/06/26 03:02:16;;;;;;;15.93;11.15;;;15.90;89.10;;;;;;2074480;28;20014;-86
2021/06/26 03:03:17;;;;;;;13.02;10.70;;;15.80;89.10;;;;;;2075264;28;20011;-86
2021/06/26 03:04:19;;;;;;;15.57;11.30;;;15.80;89.10;;;;;;2084813;28;20053;-87
2021/06/26 03:05:20;;;;;;;13.73;10.45;;;15.90;89.20;;;;;;2081227;28;20041;-87
2021/06/26 03:06:21;;;;;;;13.93;11.07;;;15.80;89.20;;;;;;2079737;28;20041;-87
2021/06/26 03:07:21;;;;;;;13.48;10.93;;;15.80;89.20;;;;;;2067390;28;20373;-87
2021/06/26 03:08:22;;;;;;;15.18;11.35;;;15.90;89.30;;;;;;2084397;28;20017;-87
2021/06/26 03:09:23;;;;;;;15.57;11.32;;;15.80;89.20;;;;;;2087080;28;20033;-87
2021/06/26 03:10:24;;;;;;;15.50;11.57;;;15.80;89.30;;;;;;2072634;28;20101;-87
2021/06/26 03:11:24;;;;;;;15.75;11.60;;;15.90;89.30;;;;;;2064605;28;20420;-87
2021/06/26 03:12:25;;;;;;;15.18;11.80;;;15.90;89.30;;;;;;2056770;28;20036;-87
2021/06/26 03:13:26;;;;;;;15.52;11.95;;;15.90;89.30;;;;;;2055931;28;20034;-85
2021/06/26 03:14:26;;;;;;;13.85;10.95;;;15.90;89.20;;;;;;2056208;28;20038;-87
2021/06/26 03:15:27;;;;;;;14.98;11.43;;;15.90;89.20;;;;;;2074300;28;20572;-87
2021/06/26 03:16:27;;;;;;;14.55;11.40;;;15.90;89.20;;;;;;2072123;28;20030;-86
2021/06/26 03:17:28;;;;;;;13.95;11.15;;;15.90;89.20;;;;;;2061868;28;20070;-87
2021/06/26 03:18:29;;;;;;;15.05;11.88;;;15.90;89.20;;;;;;2074430;28;20026;-86
2021/06/26 03:19:30;;;;;;;13.82;11.05;;;15.90;89.20;;;;;;2076413;28;20032;-87
2021/06/26 03:20:30;;;;;;;13.43;10.82;;;15.90;89.20;;;;;;2067611;28;20026;-86
2021/06/26 03:21:31;;;;;;;14.35;11.93;;;16.00;89.60;;;;;;2065890;28;20090;-86
2021/06/26 03:22:32;;;;;;;14.23;11.30;;;16.00;89.20;;;;;;2072981;28;20428;-86
2021/06/26 03:23:33;;;;;;;16.23;11.73;;;16.00;89.20;;;;;;2068103;28;20057;-86
2021/06/26 03:24:34;;;;;;;14.23;11.77;;;16.00;89.20;;;;;;2071585;28;20029;-87
2021/06/26 03:25:34;;;;;;;14.80;11.65;;;16.00;89.20;;;;;;2071093;28;20030;-87
2021/06/26 03:26:35;;;;;;;15.27;11.50;;;16.00;89.20;;;;;;2060105;28;20413;-87
2021/06/26 03:27:38;;;;;;;14.70;11.13;;;16.00;89.20;;;;;;2066012;28;20031;-86
2021/06/26 03:28:39;;;;;;;14.77;11.65;;;16.10;89.20;;;;;;2074278;28;20132;-86
2021/06/26 03:29:40;;;;;;;14.30;11.13;;;16.00;89.20;;;;;;2066213;28;20034;-86
2021/06/26 03:30:40;;;;;;;15.85;11.90;;;16.10;89.20;;;;;;2071762;28;20034;-87
2021/06/26 03:31:41;;;;;;;14.57;11.40;;;16.10;89.20;;;;;;2058021;28;20026;-86
2021/06/26 03:32:42;;;;;;;15.77;11.55;;;16.10;89.10;;;;;;2066055;28;20508;-87
2021/06/26 03:33:42;;;;;;;16.80;12.35;;;16.10;89.10;;;;;;2075102;28;20068;-86
2021/06/26 03:34:43;;;;;;;14.98;11.60;;;16.10;89.10;;;;;;2076193;28;20034;-86
2021/06/26 03:35:44;;;;;;;15.52;11.75;;;16.10;89.10;;;;;;2085926;28;20095;-85
2021/06/26 03:36:44;;;;;;;15.07;11.70;;;16.10;89.10;;;;;;2066495;28;20034;-86
2021/06/26 03:37:45;;;;;;;15.10;11.60;;;16.20;89.80;;;;;;2071441;28;20477;-87
2021/06/26 03:38:46;;;;;;;14.88;11.60;;;16.10;89.00;;;;;;2074210;28;20076;-86
2021/06/26 03:39:47;;;;;;;15.73;12.25;;;16.20;89.00;;;;;;2079049;28;20029;-87
2021/06/26 03:40:49;;;;;;;15.45;12.05;;;16.20;89.00;;;;;;2081626;28;20491;-86
2021/06/26 03:41:50;;;;;;;15.43;11.90;;;16.20;89.00;;;;;;2059983;28;20026;-87
2021/06/26 03:42:50;;;;;;;15.95;12.50;;;16.20;89.00;;;;;;2058452;28;20481;-87
2021/06/26 03:43:58;;;;;;;16.13;12.27;;;16.20;88.90;;;;;;2057899;28;20023;-86
2021/06/26 03:44:59;;;;;;;15.38;11.50;;;16.20;89.50;;;;;;2060049;28;20027;-86
2021/06/26 03:46:00;;;;;;;14.93;11.57;;;16.20;88.80;;;;;;2068745;28;20076;-89
2021/06/26 03:47:00;;;;;;;15.18;11.80;;;16.20;88.90;;;;;;2063952;28;20132;-87
2021/06/26 03:48:01;;;;;;;15.23;12.18;;;16.30;89.00;;;;;;2061123;28;20041;-85
2021/06/26 03:49:04;;;;;;;15.85;12.48;;;16.20;88.90;;;;;;2073595;28;20137;-86
2021/06/26 03:50:07;;;;;;;17.08;12.07;;;16.30;88.90;;;;;;2081850;28;20077;-86
2021/06/26 03:51:07;;;;;;;15.95;12.63;;;16.30;88.90;;;;;;2081983;28;20046;-87
2021/06/26 03:52:08;;;;;;;15.90;12.13;;;16.30;88.90;;;;;;2071772;28;20112;-86
2021/06/26 03:53:10;;;;;;;15.75;12.13;;;16.30;88.90;;;;;;2077855;28;20393;-87
2021/06/26 03:54:10;;;;;;;16.98;12.35;;;16.30;88.90;;;;;;2076295;28;20484;-87
2021/06/26 03:55:11;;;;;;;16.08;12.07;;;16.30;88.80;;;;;;2066284;28;20104;-86
2021/06/26 03:56:13;;;;;;;16.58;11.88;;;16.30;88.80;;;;;;2072732;28;20126;-86
2021/06/26 03:57:13;;;;;;;16.00;12.70;;;16.40;88.80;;;;;;2073590;28;20041;-86
2021/06/26 03:58:14;;;;;;;15.98;11.65;;;16.40;88.80;;;;;;2058049;28;20071;-86
2021/06/26 03:59:14;;;;;;;16.95;12.43;;;16.40;88.80;;;;;;2066034;28;20080;-86
2021/06/26 04:00:16;;;;;;;16.50;12.18;;;16.40;88.70;;;;;;2067409;28;20121;-86
2021/06/26 04:01:16;;;;;;;14.75;11.38;;;16.40;88.70;;;;;;2074138;28;20022;-87
2021/06/26 04:02:17;;;;;;;17.58;12.57;;;16.40;88.70;;;;;;2070382;28;20559;-86
2021/06/26 04:03:18;;;;;;;16.38;12.48;;;16.40;88.70;;;;;;2073605;28;20494;-86
2021/06/26 04:04:21;;;;;;;14.55;11.57;;;16.40;88.70;;;;;;2084429;28;20028;-86
2021/06/26 04:05:22;;;;;;;15.52;11.80;;;16.40;88.70;;;;;;2064708;28;20042;-86
2021/06/26 04:06:23;;;;;;;15.30;12.10;;;16.40;88.60;;;;;;2058378;28;20034;-86
2021/06/26 04:07:23;;;;;;;15.80;12.27;;;16.40;88.70;;;;;;2073859;28;20507;-86
2021/06/26 04:08:24;;;;;;;17.30;12.25;;;16.40;88.60;;;;;;2065595;28;20030;-86
2021/06/26 04:09:25;;;;;;;14.15;11.50;;;16.40;88.60;;;;;;2065485;28;20054;-86
2021/06/26 04:10:27;;;;;;;16.67;12.43;;;16.50;88.60;;;;;;2069725;28;20030;-85
2021/06/26 04:11:27;;;;;;;17.35;12.30;;;16.50;88.60;;;;;;2062445;28;20173;-85
2021/06/26 04:12:28;;;;;;;16.50;12.05;;;16.50;89.20;;;;;;2057763;28;20038;-86
2021/06/26 04:13:29;;;;;;;17.38;12.68;;;16.40;88.50;;;;;;2057575;28;20038;-86
2021/06/26 04:14:29;;;;;;;15.90;12.10;;;16.50;88.60;;;;;;2070583;28;20096;-86
2021/06/26 04:15:30;;;;;;;16.70;11.80;;;16.50;88.60;;;;;;2057283;28;20042;-86
2021/06/26 04:16:31;;;;;;;15.80;12.30;;;16.50;88.50;;;;;;2065856;28;20037;-85
2021/06/26 04:17:32;;;;;;;16.25;12.18;;;16.50;88.40;;;;;;2073888;28;20525;-85
2021/06/26 04:18:33;;;;;;;15.73;12.20;;;16.50;88.40;;;;;;2063632;28;20029;-85
2021/06/26 04:19:33;;;;;;;16.35;12.10;;;16.50;88.30;;;;;;2071416;28;20030;-86
2021/06/26 04:20:34;;;;;;;15.82;11.45;;;16.60;88.40;;;;;;2056986;28;20074;-86
2021/06/26 04:21:35;;;;;;;15.75;12.35;;;16.60;88.40;;;;;;2057869;28;20524;-86
2021/06/26 04:22:36;;;;;;;15.85;12.00;;;16.60;88.40;;;;;;2049667;28;20041;-86
2021/06/26 04:23:36;;;;;;;16.13;12.05;;;16.60;88.90;;;;;;2057973;28;20031;-86
2021/06/26 04:24:37;;;;;;;14.50;11.57;;;16.70;88.30;;;;;;2072418;28;20545;-86
2021/06/26 04:25:38;;;;;;;16.60;12.18;;;16.70;88.30;;;;;;2054517;28;20065;-86
2021/06/26 04:26:38;;;;;;;16.83;12.05;;;16.70;88.20;;;;;;2078739;28;20428;-86
2021/06/26 04:27:39;;;;;;;16.17;12.13;;;16.70;88.80;;;;;;2082017;28;20450;-86
2021/06/26 04:28:39;;;;;;;15.85;11.57;;;16.70;88.10;;;;;;2058605;28;20045;-86
2021/06/26 04:29:40;;;;;;;17.92;12.55;;;16.70;88.10;;;;;;2065265;28;20034;-86
2021/06/26 04:30:41;;;;;;;15.82;11.85;;;16.70;88.10;;;;;;2056507;28;20050;-86
2021/06/26 04:31:41;;;;;;;15.32;11.43;;;16.70;88.00;;;;;;2060711;28;20038;-86
2021/06/26 04:32:42;;;;;;;18.20;12.02;;;16.70;88.10;;;;;;2073737;28;20108;-87
2021/06/26 04:33:43;;;;;;;17.20;12.20;;;16.70;88.00;;;;;;2068180;28;20030;-87
2021/06/26 04:34:44;;;;;;;15.98;11.73;;;16.70;88.00;;;;;;2065233;28;20026;-86
2021/06/26 04:35:44;;;;;;;16.05;11.73;;;16.70;88.00;;;;;;2050994;28;20031;-87
2021/06/26 04:36:46;;;;;;;16.35;11.80;;;16.70;87.90;;;;;;2065774;28;20487;-87
2021/06/26 04:37:47;;;;;;;15.80;11.80;;;16.80;88.00;;;;;;2081920;28;20119;-87
2021/06/26 04:38:48;;;;;;;15.82;11.75;;;16.70;87.90;;;;;;2062070;28;20118;-87
2021/06/26 04:39:49;;;;;;;14.40;11.02;;;16.80;88.00;;;;;;2064534;28;20442;-87
2021/06/26 04:40:51;;;;;;;15.95;12.13;;;16.70;88.40;;;;;;2073683;28;20488;-87
2021/06/26 04:41:52;;;;;;;16.27;11.90;;;16.80;87.90;;;;;;2069321;28;20034;-87
2021/06/26 04:42:53;;;;;;;16.70;11.90;;;16.80;87.90;;;;;;2077008;28;20478;-86
2021/06/26 04:43:53;;;;;;;16.67;11.93;;;16.80;87.80;;;;;;2064246;28;20038;-87
2021/06/26 04:44:55;;;;;;;15.13;11.73;;;16.70;87.80;;;;;;2062490;28;20034;-87
2021/06/26 04:45:56;;;;;;;14.27;11.40;;;16.80;87.90;;;;;;2065015;28;20551;-87
2021/06/26 04:46:56;;;;;;;16.75;12.27;;;16.80;87.80;;;;;;2081718;28;20056;-87
2021/06/26 04:48:00;;;;;;;16.67;12.80;;;16.80;87.80;;;;;;2081289;28;20053;-87
2021/06/26 04:49:01;;;;;;;14.75;11.57;;;16.80;87.80;;;;;;2076879;28;20026;-87
2021/06/26 04:50:03;;;;;;;14.93;10.90;;;16.80;87.80;;;;;;2079649;28;20025;-87
2021/06/26 04:51:03;;;;;;;17.80;11.32;;;16.80;87.80;;;;;;2065425;28;20433;-87
2021/06/26 04:52:05;;;;;;;17.45;11.98;;;16.80;87.80;;;;;;2066539;28;20033;-87
2021/06/26 04:53:05;;;;;;;15.73;11.68;;;16.80;87.70;;;;;;2065656;28;20053;-86
2021/06/26 04:54:06;;;;;;;15.82;11.13;;;16.90;87.70;;;;;;2068179;28;20523;-87
2021/06/26 04:55:08;;;;;;;15.85;11.52;;;16.90;87.70;;;;;;2057156;28;20403;-87
2021/06/26 04:56:08;;;;;;;15.50;11.25;;;16.80;87.60;;;;;;2068429;28;20049;-87
2021/06/26 04:57:09;;;;;;;14.38;10.98;;;16.90;87.60;;;;;;2056958;28;20062;-87
2021/06/26 04:58:10;;;;;;;15.68;11.27;;;16.90;87.60;;;;;;2057239;28;20038;-87
2021/06/26 04:59:10;;;;;;;15.32;11.55;;;17.00;87.60;;;;;;2057012;28;20034;-86
2021/06/26 05:00:12;;;;;;;16.13;11.63;;;16.90;87.50;;;;;;2057953;28;20054;-86
2021/06/26 05:01:13;;;;;;;18.75;12.27;;;17.00;87.50;;;;;;2065242;28;20029;-87
2021/06/26 05:02:13;;;;;;;14.73;10.82;;;17.00;87.50;;;;;;2065029;28;20564;-86
2021/06/26 05:03:14;;;;;;;17.30;11.52;;;17.00;87.40;;;;;;2072522;28;20503;-85
2021/06/26 05:04:14;;;;;;;17.40;11.85;;;17.00;87.40;;;;;;2081767;28;20067;-86
2021/06/26 05:05:15;;;;;;;16.30;11.50;;;17.00;87.30;;;;;;2078880;28;20022;-86
2021/06/26 05:06:16;;;;;;;16.55;11.73;;;17.10;87.30;;;;;;2069258;28;20038;-86
2021/06/26 05:07:17;;;;;;;16.77;11.70;;;17.10;87.30;;;;;;2072156;28;20113;-86
2021/06/26 05:08:18;;;;;;;16.05;11.57;;;17.10;87.20;;;;;;2070798;28;20045;-86
2021/06/26 05:09:18;;;;;;;17.65;11.85;;;17.10;87.20;;;;;;2065297;28;20062;-86